PWSweather.com
Personal Weather Stations
Station Observations
ILOMBARD30
LodiIT 26900

LodiIT 26900

Lat: 45.2993, Lon: 9.5207

Elevation: 255

Station Type: Davis Vantege Pro2 Plus 24h

http://www.meteo-iw2gob.it

Latest ConditionsUpdated 4:45:01 PM GMT+01:01 Thursday, Nov 15, 2018
Currently Today's Max Today's Min Today's Average
Temperature 55.1°F12.8°C 55.3°F12.9°C 49.9°F9.9°C 52.5°F11.4°C
Dew Point 53.4°F11.9°C 53.8°F12.1°C 48.5°F9.2°C 51.2°F10.7°C
Winds 1.2 mph ESE1.9 kmh ESE 3.5 mph -5.6 kmh - - 0.4 mph 0.6 kmh
Wind Gusts 3.5 mph5.6 kmh 4.6 mph7.4 kmh - -
Humidity 94% 96% 94% 96%
Pressure 30.22 in1023.4 mb 30.31 in1026.4 mb 30.22 in1023.4 mb -
Precipitation - 0.01 in0.3 mm - -
Hour Temp Dew Point Humidity Winds Wind Gusts Pressure Precip Precip Rate Daily Precip Total
04:45 PM 55.1°F12.8°C 53.4°F11.9°C 94% 1.2 mph ESE1.9 kmh ESE 3.5 mph5.6 kmh 30.22 in1023.4 mb - 0.00 in0.0 mm 0.01 in0.3 mm
04:40 PM 55.2°F12.9°C 53.5°F11.9°C 94% 2.3 mph ESE3.7 kmh ESE 3.5 mph5.6 kmh 30.22 in1023.4 mb - 0.00 in0.0 mm 0.01 in0.3 mm
04:35 PM 55.2°F12.9°C 53.5°F11.9°C 94% 1.2 mph ESE1.9 kmh ESE 3.5 mph5.6 kmh 30.22 in1023.4 mb - 0.00 in0.0 mm 0.01 in0.3 mm
04:30 PM 55.2°F12.9°C 53.5°F11.9°C 94% Calm Calm 1.2 mph1.9 kmh 30.23 in1023.7 mb - 0.00 in0.0 mm 0.01 in0.3 mm
04:25 PM 55.2°F12.9°C 53.5°F11.9°C 94% 2.3 mph ESE3.7 kmh ESE 3.5 mph5.6 kmh 30.22 in1023.4 mb - 0.00 in0.0 mm 0.01 in0.3 mm
04:20 PM 55.3°F12.9°C 53.6°F12.0°C 94% Calm Calm -- 30.23 in1023.7 mb - 0.00 in0.0 mm 0.01 in0.3 mm
04:15 PM 55.3°F12.9°C 53.6°F12.0°C 94% 1.2 mph ESE1.9 kmh ESE 1.2 mph1.9 kmh 30.22 in1023.4 mb - 0.00 in0.0 mm 0.01 in0.3 mm
04:10 PM 55.2°F12.9°C 53.5°F11.9°C 94% Calm Calm 2.3 mph3.7 kmh 30.23 in1023.7 mb - 0.00 in0.0 mm 0.01 in0.3 mm
04:05 PM 55.2°F12.9°C 53.5°F11.9°C 94% Calm Calm -- 30.23 in1023.7 mb - 0.00 in0.0 mm 0.01 in0.3 mm
04:00 PM 55.1°F12.8°C 53.4°F11.9°C 94% Calm Calm -- 30.23 in1023.7 mb - 0.00 in0.0 mm 0.01 in0.3 mm
03:55 PM 55.2°F12.9°C 53.8°F12.1°C 95% Calm Calm -- 30.23 in1023.7 mb - 0.00 in0.0 mm 0.01 in0.3 mm
03:50 PM 55.2°F12.9°C 53.8°F12.1°C 95% Calm Calm -- 30.23 in1023.7 mb - 0.00 in0.0 mm 0.01 in0.3 mm
03:45 PM 55.1°F12.8°C 53.7°F12.1°C 95% Calm Calm -- 30.23 in1023.7 mb - 0.00 in0.0 mm 0.01 in0.3 mm
03:40 PM 55.1°F12.8°C 53.7°F12.1°C 95% 1.2 mph ESE1.9 kmh ESE 3.5 mph5.6 kmh 30.23 in1023.7 mb - 0.00 in0.0 mm 0.01 in0.3 mm
03:35 PM 55.1°F12.8°C 53.7°F12.1°C 95% 2.3 mph E3.7 kmh E 3.5 mph5.6 kmh 30.23 in1023.7 mb - 0.00 in0.0 mm 0.01 in0.3 mm
03:30 PM 55.1°F12.8°C 53.7°F12.1°C 95% 3.5 mph E5.6 kmh E 3.5 mph5.6 kmh 30.23 in1023.7 mb - 0.00 in0.0 mm 0.01 in0.3 mm
03:25 PM 55.1°F12.8°C 53.7°F12.1°C 95% 1.2 mph E1.9 kmh E 3.5 mph5.6 kmh 30.23 in1023.7 mb - 0.00 in0.0 mm 0.01 in0.3 mm
03:20 PM 55.1°F12.8°C 53.7°F12.1°C 95% 3.5 mph E5.6 kmh E 4.6 mph7.4 kmh 30.23 in1023.7 mb - 0.00 in0.0 mm 0.01 in0.3 mm
03:15 PM 55.1°F12.8°C 53.7°F12.1°C 95% 1.2 mph ENE1.9 kmh ENE 1.2 mph1.9 kmh 30.24 in1024.0 mb - 0.00 in0.0 mm 0.01 in0.3 mm
03:10 PM 55.1°F12.8°C 53.6°F12.0°C 95% 1.2 mph NE1.9 kmh NE 3.5 mph5.6 kmh 30.24 in1024.0 mb - 0.00 in0.0 mm 0.01 in0.3 mm
03:05 PM 55.0°F12.8°C 53.6°F12.0°C 95% 2.3 mph NE3.7 kmh NE 3.5 mph5.6 kmh 30.24 in1024.0 mb - 0.00 in0.0 mm 0.01 in0.3 mm
03:00 PM 55.0°F12.8°C 53.6°F12.0°C 95% 1.2 mph NE1.9 kmh NE 3.5 mph5.6 kmh 30.24 in1024.0 mb - 0.00 in0.0 mm 0.01 in0.3 mm
02:55 PM 55.0°F12.8°C 53.6°F12.0°C 95% 2.3 mph NE3.7 kmh NE 3.5 mph5.6 kmh 30.24 in1024.0 mb - 0.00 in0.0 mm 0.01 in0.3 mm
02:50 PM 55.1°F12.8°C 53.7°F12.1°C 95% 1.2 mph ENE1.9 kmh ENE 3.5 mph5.6 kmh 30.24 in1024.0 mb - 0.00 in0.0 mm 0.01 in0.3 mm
02:45 PM 55.1°F12.8°C 53.7°F12.1°C 95% 1.2 mph E1.9 kmh E 3.5 mph5.6 kmh 30.24 in1024.0 mb - 0.00 in0.0 mm 0.01 in0.3 mm
02:40 PM 55.0°F12.8°C 53.6°F12.0°C 95% 1.2 mph E1.9 kmh E 2.3 mph3.7 kmh 30.24 in1024.0 mb - 0.00 in0.0 mm 0.01 in0.3 mm
02:35 PM 54.9°F12.7°C 53.5°F11.9°C 95% 1.2 mph ENE1.9 kmh ENE 3.5 mph5.6 kmh 30.24 in1024.0 mb - 0.00 in0.0 mm 0.01 in0.3 mm
02:30 PM 54.9°F12.7°C 53.5°F11.9°C 95% 2.3 mph ENE3.7 kmh ENE 3.5 mph5.6 kmh 30.24 in1024.0 mb - 0.00 in0.0 mm 0.01 in0.3 mm
02:25 PM 54.9°F12.7°C 53.5°F11.9°C 95% 2.3 mph ENE3.7 kmh ENE 3.5 mph5.6 kmh 30.24 in1024.0 mb - 0.00 in0.0 mm 0.01 in0.3 mm
02:20 PM 54.8°F12.7°C 53.4°F11.9°C 95% 1.2 mph E1.9 kmh E 2.3 mph3.7 kmh 30.24 in1024.0 mb - 0.00 in0.0 mm 0.01 in0.3 mm
02:15 PM 54.8°F12.7°C 53.4°F11.9°C 95% 1.2 mph E1.9 kmh E 2.3 mph3.7 kmh 30.25 in1024.4 mb - 0.00 in0.0 mm 0.01 in0.3 mm
02:10 PM 54.7°F12.6°C 53.3°F11.8°C 95% 1.2 mph ENE1.9 kmh ENE 2.3 mph3.7 kmh 30.25 in1024.4 mb - 0.00 in0.0 mm 0.01 in0.3 mm
02:05 PM 54.7°F12.6°C 53.3°F11.8°C 95% 1.2 mph ENE1.9 kmh ENE 1.2 mph1.9 kmh 30.25 in1024.4 mb - 0.00 in0.0 mm 0.01 in0.3 mm
02:00 PM 54.7°F12.6°C 53.3°F11.8°C 95% 1.2 mph ENE1.9 kmh ENE 3.5 mph5.6 kmh 30.25 in1024.4 mb - 0.00 in0.0 mm 0.01 in0.3 mm
01:55 PM 54.7°F12.6°C 53.3°F11.8°C 95% 1.2 mph ENE1.9 kmh ENE 3.5 mph5.6 kmh 30.25 in1024.4 mb - 0.00 in0.0 mm 0.01 in0.3 mm
01:50 PM 54.6°F12.6°C 53.5°F11.9°C 96% 2.3 mph ENE3.7 kmh ENE 3.5 mph5.6 kmh 30.25 in1024.4 mb - 0.00 in0.0 mm 0.01 in0.3 mm
01:45 PM 54.6°F12.6°C 53.5°F11.9°C 96% 2.3 mph ENE3.7 kmh ENE 3.5 mph5.6 kmh 30.25 in1024.4 mb - 0.00 in0.0 mm 0.01 in0.3 mm
01:40 PM 54.6°F12.6°C 53.5°F11.9°C 96% 1.2 mph NE1.9 kmh NE 2.3 mph3.7 kmh 30.25 in1024.4 mb - 0.00 in0.0 mm 0.01 in0.3 mm
01:35 PM 54.6°F12.6°C 53.5°F11.9°C 96% 1.2 mph NE1.9 kmh NE 2.3 mph3.7 kmh 30.25 in1024.4 mb - 0.00 in0.0 mm 0.01 in0.3 mm
01:30 PM 54.9°F12.7°C 53.5°F11.9°C 95% 1.2 mph NE1.9 kmh NE 3.5 mph5.6 kmh 30.25 in1024.4 mb - 0.00 in0.0 mm 0.01 in0.3 mm
01:25 PM 54.8°F12.7°C 53.7°F12.1°C 96% Calm Calm 1.2 mph1.9 kmh 30.25 in1024.4 mb - 0.00 in0.0 mm 0.01 in0.3 mm
01:20 PM 54.8°F12.7°C 53.7°F12.1°C 96% Calm Calm -- 30.25 in1024.4 mb - 0.00 in0.0 mm 0.01 in0.3 mm
01:15 PM 54.6°F12.6°C 53.5°F11.9°C 96% Calm Calm -- 30.25 in1024.4 mb - 0.00 in0.0 mm 0.01 in0.3 mm
01:10 PM 54.5°F12.5°C 53.1°F11.7°C 95% Calm Calm -- 30.25 in1024.4 mb - 0.00 in0.0 mm 0.01 in0.3 mm
01:05 PM 54.5°F12.5°C 53.1°F11.7°C 95% Calm Calm -- 30.25 in1024.4 mb - 0.00 in0.0 mm 0.01 in0.3 mm
01:00 PM 54.5°F12.5°C 53.1°F11.7°C 95% Calm Calm 2.3 mph3.7 kmh 30.25 in1024.4 mb - 0.00 in0.0 mm 0.01 in0.3 mm
12:55 PM 54.4°F12.4°C 53.0°F11.7°C 95% Calm Calm -- 30.26 in1024.7 mb - 0.00 in0.0 mm 0.01 in0.3 mm
12:50 PM 54.4°F12.4°C 53.0°F11.7°C 95% Calm Calm -- 30.26 in1024.7 mb - 0.00 in0.0 mm 0.01 in0.3 mm
12:45 PM 54.3°F12.4°C 52.9°F11.6°C 95% Calm Calm -- 30.26 in1024.7 mb - 0.00 in0.0 mm 0.01 in0.3 mm
12:40 PM 54.3°F12.4°C 53.2°F11.8°C 96% Calm Calm 1.2 mph1.9 kmh 30.26 in1024.7 mb - 0.00 in0.0 mm 0.01 in0.3 mm
12:35 PM 54.2°F12.3°C 53.1°F11.7°C 96% Calm Calm 1.2 mph1.9 kmh 30.26 in1024.7 mb - 0.00 in0.0 mm 0.01 in0.3 mm
12:30 PM 54.1°F12.3°C 53.0°F11.7°C 96% Calm Calm 1.2 mph1.9 kmh 30.26 in1024.7 mb - 0.00 in0.0 mm 0.01 in0.3 mm
12:25 PM 54.0°F12.2°C 52.9°F11.6°C 96% Calm Calm -- 30.27 in1025.1 mb - 0.00 in0.0 mm 0.01 in0.3 mm
12:20 PM 54.0°F12.2°C 52.6°F11.4°C 95% Calm Calm -- 30.27 in1025.1 mb - 0.00 in0.0 mm 0.01 in0.3 mm
12:15 PM 54.0°F12.2°C 52.9°F11.6°C 96% 1.2 mph ENE1.9 kmh ENE 2.3 mph3.7 kmh 30.27 in1025.1 mb - 0.00 in0.0 mm 0.01 in0.3 mm
12:10 PM 54.0°F12.2°C 52.9°F11.6°C 96% Calm Calm 1.2 mph1.9 kmh 30.27 in1025.1 mb - 0.00 in0.0 mm 0.01 in0.3 mm
12:05 PM 53.9°F12.2°C 52.8°F11.6°C 96% 1.2 mph NNE1.9 kmh NNE 1.2 mph1.9 kmh 30.27 in1025.1 mb - 0.00 in0.0 mm 0.01 in0.3 mm
12:00 PM 53.9°F12.2°C 52.8°F11.6°C 96% Calm Calm 1.2 mph1.9 kmh 30.27 in1025.1 mb - 0.00 in0.0 mm 0.01 in0.3 mm
11:55 AM 53.8°F12.1°C 52.7°F11.5°C 96% Calm Calm 1.2 mph1.9 kmh 30.28 in1025.4 mb - 0.00 in0.0 mm 0.01 in0.3 mm
11:50 AM 53.7°F12.1°C 52.6°F11.4°C 96% Calm Calm -- 30.28 in1025.4 mb - 0.00 in0.0 mm 0.01 in0.3 mm
11:45 AM 53.9°F12.2°C 52.8°F11.6°C 96% Calm Calm 1.2 mph1.9 kmh 30.28 in1025.4 mb - 0.00 in0.0 mm 0.01 in0.3 mm
11:40 AM 53.9°F12.2°C 52.7°F11.5°C 96% Calm Calm -- 30.28 in1025.4 mb - 0.00 in0.0 mm 0.01 in0.3 mm
11:35 AM 53.8°F12.1°C 52.7°F11.5°C 96% Calm Calm 1.2 mph1.9 kmh 30.28 in1025.4 mb - 0.00 in0.0 mm 0.01 in0.3 mm
11:30 AM 53.9°F12.2°C 52.8°F11.6°C 96% 1.2 mph NNE1.9 kmh NNE 1.2 mph1.9 kmh 30.28 in1025.4 mb - 0.00 in0.0 mm 0.01 in0.3 mm
11:25 AM 53.9°F12.2°C 52.8°F11.6°C 96% Calm Calm -- 30.28 in1025.4 mb - 0.00 in0.0 mm 0.01 in0.3 mm
11:20 AM 53.8°F12.1°C 52.7°F11.5°C 96% Calm Calm -- 30.29 in1025.7 mb - 0.00 in0.0 mm 0.01 in0.3 mm
11:15 AM 53.7°F12.1°C 52.6°F11.4°C 96% Calm Calm -- 30.29 in1025.7 mb - 0.00 in0.0 mm 0.01 in0.3 mm
11:10 AM 53.6°F12.0°C 52.5°F11.4°C 96% Calm Calm -- 30.29 in1025.7 mb - 0.00 in0.0 mm 0.01 in0.3 mm
11:05 AM 53.6°F12.0°C 52.5°F11.4°C 96% Calm Calm 1.2 mph1.9 kmh 30.29 in1025.7 mb - 0.00 in0.0 mm 0.01 in0.3 mm
11:00 AM 53.6°F12.0°C 52.5°F11.4°C 96% Calm Calm 1.2 mph1.9 kmh 30.29 in1025.7 mb - 0.00 in0.0 mm 0.01 in0.3 mm
10:55 AM 53.5°F11.9°C 52.4°F11.3°C 96% 1.2 mph NNE1.9 kmh NNE 1.2 mph1.9 kmh 30.29 in1025.7 mb - 0.00 in0.0 mm 0.01 in0.3 mm
10:50 AM 53.5°F11.9°C 52.4°F11.3°C 96% 1.2 mph NNE1.9 kmh NNE 1.2 mph1.9 kmh 30.29 in1025.7 mb - 0.00 in0.0 mm 0.01 in0.3 mm
10:45 AM 53.4°F11.9°C 52.3°F11.3°C 96% Calm Calm 1.2 mph1.9 kmh 30.29 in1025.7 mb - 0.00 in0.0 mm 0.01 in0.3 mm
10:40 AM 53.5°F11.9°C 52.4°F11.3°C 96% 1.2 mph NNE1.9 kmh NNE 2.3 mph3.7 kmh 30.29 in1025.7 mb - 0.00 in0.0 mm 0.01 in0.3 mm
10:35 AM 53.4°F11.9°C 52.3°F11.3°C 96% 1.2 mph NNE1.9 kmh NNE 1.2 mph1.9 kmh 30.29 in1025.7 mb - 0.00 in0.0 mm 0.01 in0.3 mm
10:30 AM 53.4°F11.9°C 52.3°F11.3°C 96% Calm Calm 1.2 mph1.9 kmh 30.29 in1025.7 mb - 0.00 in0.0 mm 0.01 in0.3 mm
10:25 AM 53.4°F11.9°C 52.3°F11.3°C 96% Calm Calm 1.2 mph1.9 kmh 30.29 in1025.7 mb - 0.00 in0.0 mm 0.01 in0.3 mm
10:20 AM 53.4°F11.9°C 52.3°F11.3°C 96% Calm Calm 1.2 mph1.9 kmh 30.29 in1025.7 mb - 0.00 in0.0 mm 0.01 in0.3 mm
10:15 AM 53.4°F11.9°C 52.3°F11.3°C 96% Calm Calm 1.2 mph1.9 kmh 30.29 in1025.7 mb - 0.00 in0.0 mm 0.01 in0.3 mm
10:10 AM 53.4°F11.9°C 52.3°F11.3°C 96% Calm Calm 2.3 mph3.7 kmh 30.29 in1025.7 mb - 0.00 in0.0 mm 0.01 in0.3 mm
10:05 AM 53.3°F11.8°C 52.2°F11.2°C 96% Calm Calm 2.3 mph3.7 kmh 30.29 in1025.7 mb - 0.00 in0.0 mm 0.01 in0.3 mm
10:00 AM 53.2°F11.8°C 52.1°F11.2°C 96% 1.2 mph NNE1.9 kmh NNE 2.3 mph3.7 kmh 30.29 in1025.7 mb - 0.00 in0.0 mm 0.01 in0.3 mm
09:55 AM 53.2°F11.8°C 52.1°F11.2°C 96% Calm Calm 3.5 mph5.6 kmh 30.29 in1025.7 mb - 0.00 in0.0 mm 0.01 in0.3 mm
09:50 AM 53.1°F11.7°C 52.0°F11.1°C 96% Calm Calm 1.2 mph1.9 kmh 30.29 in1025.7 mb - 0.00 in0.0 mm 0.01 in0.3 mm
09:45 AM 53.0°F11.7°C 51.9°F11.1°C 96% 1.2 mph NE1.9 kmh NE 2.3 mph3.7 kmh 30.29 in1025.7 mb - 0.00 in0.0 mm 0.01 in0.3 mm
09:40 AM 53.0°F11.7°C 51.9°F11.1°C 96% 2.3 mph NE3.7 kmh NE 3.5 mph5.6 kmh 30.29 in1025.7 mb - 0.00 in0.0 mm 0.01 in0.3 mm
09:35 AM 52.9°F11.6°C 51.8°F11.0°C 96% 1.2 mph NNE1.9 kmh NNE 1.2 mph1.9 kmh 30.29 in1025.7 mb - 0.00 in0.0 mm 0.01 in0.3 mm
09:30 AM 52.9°F11.6°C 51.8°F11.0°C 96% 1.2 mph N1.9 kmh N 3.5 mph5.6 kmh 30.29 in1025.7 mb - 0.00 in0.0 mm 0.01 in0.3 mm
09:25 AM 52.8°F11.6°C 51.7°F10.9°C 96% 1.2 mph N1.9 kmh N 2.3 mph3.7 kmh 30.29 in1025.7 mb - 0.00 in0.0 mm 0.01 in0.3 mm
09:20 AM 52.8°F11.6°C 51.7°F10.9°C 96% 1.2 mph N1.9 kmh N 2.3 mph3.7 kmh 30.29 in1025.7 mb - 0.00 in0.0 mm 0.01 in0.3 mm
09:15 AM 52.8°F11.6°C 51.7°F10.9°C 96% 1.2 mph NNE1.9 kmh NNE 2.3 mph3.7 kmh 30.29 in1025.7 mb - 0.00 in0.0 mm 0.01 in0.3 mm
09:10 AM 52.8°F11.6°C 51.7°F10.9°C 96% 1.2 mph NNE1.9 kmh NNE 2.3 mph3.7 kmh 30.29 in1025.7 mb - 0.00 in0.0 mm 0.01 in0.3 mm
09:05 AM 52.8°F11.6°C 51.7°F10.9°C 96% 1.2 mph N1.9 kmh N 2.3 mph3.7 kmh 30.29 in1025.7 mb - 0.00 in0.0 mm 0.01 in0.3 mm
09:00 AM 52.7°F11.5°C 51.6°F10.9°C 96% 1.2 mph N1.9 kmh N 2.3 mph3.7 kmh 30.29 in1025.7 mb - 0.00 in0.0 mm 0.01 in0.3 mm
08:55 AM 52.6°F11.4°C 51.5°F10.8°C 96% 1.2 mph N1.9 kmh N 3.5 mph5.6 kmh 30.29 in1025.7 mb - 0.00 in0.0 mm 0.01 in0.3 mm
08:50 AM 52.6°F11.4°C 51.5°F10.8°C 96% Calm Calm 1.2 mph1.9 kmh 30.29 in1025.7 mb - 0.00 in0.0 mm 0.01 in0.3 mm
08:45 AM 52.6°F11.4°C 51.5°F10.8°C 96% 1.2 mph N1.9 kmh N 2.3 mph3.7 kmh 30.29 in1025.7 mb - 0.00 in0.0 mm 0.01 in0.3 mm
08:40 AM 52.5°F11.4°C 51.4°F10.8°C 96% Calm Calm -- 30.29 in1025.7 mb - 0.00 in0.0 mm 0.01 in0.3 mm
08:35 AM 52.4°F11.3°C 51.3°F10.7°C 96% Calm Calm -- 30.29 in1025.7 mb - 0.00 in0.0 mm 0.01 in0.3 mm
08:30 AM 52.3°F11.3°C 51.2°F10.7°C 96% Calm Calm -- 30.29 in1025.7 mb - 0.00 in0.0 mm 0.01 in0.3 mm
08:25 AM 52.2°F11.2°C 51.1°F10.6°C 96% Calm Calm -- 30.29 in1025.7 mb - 0.00 in0.0 mm 0.01 in0.3 mm
08:20 AM 52.1°F11.2°C 51.0°F10.6°C 96% Calm Calm -- 30.29 in1025.7 mb - 0.00 in0.0 mm 0.01 in0.3 mm
08:15 AM 52.0°F11.1°C 50.9°F10.5°C 96% Calm Calm -- 30.29 in1025.7 mb - 0.00 in0.0 mm 0.01 in0.3 mm
08:10 AM 51.9°F11.1°C 50.8°F10.4°C 96% Calm Calm -- 30.29 in1025.7 mb - 0.00 in0.0 mm 0.01 in0.3 mm
08:05 AM 51.8°F11.0°C 50.7°F10.4°C 96% Calm Calm -- 30.29 in1025.7 mb - 0.00 in0.0 mm 0.01 in0.3 mm
08:00 AM 51.7°F10.9°C 50.6°F10.3°C 96% Calm Calm -- 30.29 in1025.7 mb - 0.00 in0.0 mm 0.01 in0.3 mm
07:55 AM 51.7°F10.9°C 50.6°F10.3°C 96% Calm Calm -- 30.28 in1025.4 mb - 0.00 in0.0 mm 0.01 in0.3 mm
07:50 AM 51.7°F10.9°C 50.6°F10.3°C 96% Calm Calm -- 30.29 in1025.7 mb - 0.00 in0.0 mm 0.01 in0.3 mm
07:45 AM 51.6°F10.9°C 50.5°F10.3°C 96% Calm Calm -- 30.29 in1025.7 mb - 0.00 in0.0 mm 0.01 in0.3 mm
07:40 AM 51.6°F10.9°C 50.5°F10.3°C 96% Calm Calm -- 30.28 in1025.4 mb - 0.00 in0.0 mm 0.01 in0.3 mm
07:35 AM 51.6°F10.9°C 50.5°F10.3°C 96% Calm Calm -- 30.28 in1025.4 mb - 0.00 in0.0 mm 0.01 in0.3 mm
07:30 AM 51.5°F10.8°C 50.4°F10.2°C 96% Calm Calm -- 30.28 in1025.4 mb - 0.00 in0.0 mm 0.01 in0.3 mm
07:25 AM 51.5°F10.8°C 50.4°F10.2°C 96% Calm Calm -- 30.28 in1025.4 mb - 0.00 in0.0 mm 0.01 in0.3 mm
07:20 AM 51.5°F10.8°C 50.4°F10.2°C 96% Calm Calm -- 30.28 in1025.4 mb - 0.00 in0.0 mm 0.01 in0.3 mm
07:15 AM 51.5°F10.8°C 50.4°F10.2°C 96% Calm Calm -- 30.28 in1025.4 mb - 0.00 in0.0 mm 0.01 in0.3 mm
07:10 AM 51.4°F10.8°C 50.3°F10.2°C 96% Calm Calm -- 30.28 in1025.4 mb - 0.00 in0.0 mm 0.01 in0.3 mm
07:05 AM 51.4°F10.8°C 50.3°F10.2°C 96% Calm Calm -- 30.28 in1025.4 mb - 0.00 in0.0 mm 0.01 in0.3 mm
07:00 AM 51.4°F10.8°C 50.3°F10.2°C 96% Calm Calm -- 30.28 in1025.4 mb - 0.00 in0.0 mm 0.01 in0.3 mm
06:55 AM 51.3°F10.7°C 50.2°F10.1°C 96% Calm Calm -- 30.28 in1025.4 mb - 0.00 in0.0 mm 0.01 in0.3 mm
06:50 AM 51.2°F10.7°C 50.1°F10.1°C 96% Calm Calm -- 30.28 in1025.4 mb - 0.00 in0.0 mm 0.01 in0.3 mm
06:45 AM 51.1°F10.6°C 50.0°F10.0°C 96% Calm Calm -- 30.28 in1025.4 mb - 0.00 in0.0 mm 0.01 in0.3 mm
06:40 AM 51.0°F10.6°C 49.9°F9.9°C 96% Calm Calm -- 30.28 in1025.4 mb - 0.00 in0.0 mm 0.01 in0.3 mm
06:35 AM 51.0°F10.6°C 49.9°F9.9°C 96% Calm Calm -- 30.28 in1025.4 mb - 0.00 in0.0 mm 0.01 in0.3 mm
06:30 AM 50.9°F10.5°C 49.8°F9.9°C 96% Calm Calm -- 30.28 in1025.4 mb - 0.00 in0.0 mm 0.01 in0.3 mm
06:25 AM 50.9°F10.5°C 49.8°F9.9°C 96% Calm Calm -- 30.28 in1025.4 mb - 0.00 in0.0 mm 0.01 in0.3 mm
06:20 AM 50.8°F10.4°C 49.7°F9.8°C 96% Calm Calm -- 30.28 in1025.4 mb - 0.00 in0.0 mm 0.01 in0.3 mm
06:15 AM 50.8°F10.4°C 49.7°F9.8°C 96% Calm Calm -- 30.28 in1025.4 mb - 0.00 in0.0 mm 0.01 in0.3 mm
06:10 AM 50.7°F10.4°C 49.6°F9.8°C 96% Calm Calm -- 30.28 in1025.4 mb - 0.00 in0.0 mm 0.01 in0.3 mm
06:05 AM 50.7°F10.4°C 49.6°F9.8°C 96% Calm Calm -- 30.28 in1025.4 mb - 0.00 in0.0 mm 0.01 in0.3 mm
06:00 AM 50.6°F10.3°C 49.5°F9.7°C 96% Calm Calm -- 30.28 in1025.4 mb - 0.00 in0.0 mm 0.01 in0.3 mm
05:55 AM 50.6°F10.3°C 49.5°F9.7°C 96% Calm Calm -- 30.28 in1025.4 mb - 0.00 in0.0 mm 0.01 in0.3 mm
05:50 AM 50.5°F10.3°C 49.4°F9.7°C 96% Calm Calm -- 30.28 in1025.4 mb - 0.00 in0.0 mm 0.01 in0.3 mm
05:45 AM 50.4°F10.2°C 49.3°F9.6°C 96% Calm Calm -- 30.28 in1025.4 mb - 0.00 in0.0 mm 0.01 in0.3 mm
05:40 AM 50.4°F10.2°C 49.3°F9.6°C 96% Calm Calm -- 30.28 in1025.4 mb - 0.00 in0.0 mm 0.01 in0.3 mm
05:35 AM 50.3°F10.2°C 49.2°F9.6°C 96% Calm Calm -- 30.28 in1025.4 mb - 0.00 in0.0 mm 0.01 in0.3 mm
05:30 AM 50.3°F10.2°C 49.2°F9.6°C 96% Calm Calm -- 30.28 in1025.4 mb - 0.00 in0.0 mm 0.01 in0.3 mm
05:25 AM 50.3°F10.2°C 49.2°F9.6°C 96% Calm Calm -- 30.28 in1025.4 mb - 0.00 in0.0 mm 0.01 in0.3 mm
05:20 AM 50.3°F10.2°C 49.2°F9.6°C 96% Calm Calm -- 30.27 in1025.1 mb - 0.00 in0.0 mm 0.01 in0.3 mm
05:15 AM 50.3°F10.2°C 49.2°F9.6°C 96% Calm Calm -- 30.28 in1025.4 mb - 0.00 in0.0 mm 0.01 in0.3 mm
05:10 AM 50.3°F10.2°C 49.2°F9.6°C 96% Calm Calm -- 30.27 in1025.1 mb - 0.00 in0.0 mm 0.01 in0.3 mm
05:05 AM 50.3°F10.2°C 49.2°F9.6°C 96% Calm Calm -- 30.27 in1025.1 mb - 0.00 in0.0 mm 0.01 in0.3 mm
05:00 AM 50.4°F10.2°C 49.3°F9.6°C 96% Calm Calm -- 30.28 in1025.4 mb - 0.00 in0.0 mm 0.01 in0.3 mm
04:55 AM 50.4°F10.2°C 49.3°F9.6°C 96% Calm Calm -- 30.28 in1025.4 mb - 0.00 in0.0 mm 0.01 in0.3 mm
04:50 AM 50.5°F10.3°C 49.4°F9.7°C 96% Calm Calm -- 30.28 in1025.4 mb - 0.00 in0.0 mm 0.01 in0.3 mm
04:45 AM 50.5°F10.3°C 49.4°F9.7°C 96% Calm Calm -- 30.28 in1025.4 mb - 0.00 in0.0 mm 0.01 in0.3 mm
04:40 AM 50.5°F10.3°C 49.4°F9.7°C 96% Calm Calm -- 30.28 in1025.4 mb - 0.00 in0.0 mm 0.01 in0.3 mm
04:35 AM 50.6°F10.3°C 49.5°F9.7°C 96% Calm Calm -- 30.28 in1025.4 mb - 0.00 in0.0 mm 0.01 in0.3 mm
04:30 AM 50.6°F10.3°C 49.5°F9.7°C 96% Calm Calm -- 30.28 in1025.4 mb - 0.00 in0.0 mm 0.01 in0.3 mm
04:25 AM 50.7°F10.4°C 49.6°F9.8°C 96% Calm Calm -- 30.28 in1025.4 mb - 0.00 in0.0 mm 0.01 in0.3 mm
04:20 AM 50.7°F10.4°C 49.6°F9.8°C 96% Calm Calm -- 30.28 in1025.4 mb - 0.00 in0.0 mm 0.01 in0.3 mm
04:15 AM 50.8°F10.4°C 49.7°F9.8°C 96% Calm Calm -- 30.28 in1025.4 mb - 0.00 in0.0 mm 0.01 in0.3 mm
04:10 AM 50.8°F10.4°C 49.7°F9.8°C 96% Calm Calm -- 30.28 in1025.4 mb - 0.00 in0.0 mm 0.01 in0.3 mm
04:05 AM 50.8°F10.4°C 49.7°F9.8°C 96% Calm Calm -- 30.28 in1025.4 mb - 0.00 in0.0 mm 0.01 in0.3 mm
04:00 AM 50.8°F10.4°C 49.7°F9.8°C 96% Calm Calm -- 30.28 in1025.4 mb - 0.00 in0.0 mm 0.01 in0.3 mm
03:55 AM 50.8°F10.4°C 49.7°F9.8°C 96% Calm Calm -- 30.28 in1025.4 mb - 0.00 in0.0 mm 0.01 in0.3 mm
03:50 AM 50.7°F10.4°C 49.6°F9.8°C 96% Calm Calm -- 30.28 in1025.4 mb - 0.00 in0.0 mm 0.01 in0.3 mm
03:45 AM 50.7°F10.4°C 49.6°F9.8°C 96% Calm Calm -- 30.28 in1025.4 mb - 0.00 in0.0 mm 0.01 in0.3 mm
03:40 AM 50.7°F10.4°C 49.6°F9.8°C 96% Calm Calm -- 30.28 in1025.4 mb - 0.00 in0.0 mm 0.01 in0.3 mm
03:35 AM 50.7°F10.4°C 49.6°F9.8°C 96% Calm Calm -- 30.28 in1025.4 mb - 0.00 in0.0 mm 0.01 in0.3 mm
03:30 AM 50.7°F10.4°C 49.6°F9.8°C 96% Calm Calm -- 30.28 in1025.4 mb - 0.00 in0.0 mm 0.01 in0.3 mm
03:25 AM 50.6°F10.3°C 49.5°F9.7°C 96% Calm Calm -- 30.28 in1025.4 mb - 0.01 in0.3 mm 0.01 in0.3 mm
03:20 AM 50.5°F10.3°C 49.4°F9.7°C 96% Calm Calm 1.2 mph1.9 kmh 30.28 in1025.4 mb - 0.01 in0.3 mm 0.01 in0.3 mm
03:15 AM 50.4°F10.2°C 49.3°F9.6°C 96% Calm Calm -- 30.29 in1025.7 mb - 0.00 in0.0 mm 0.00 in0.0 mm
03:10 AM 50.3°F10.2°C 48.9°F9.4°C 95% Calm Calm -- 30.29 in1025.7 mb - 0.00 in0.0 mm 0.00 in0.0 mm
03:05 AM 50.1°F10.1°C 48.8°F9.3°C 95% Calm Calm -- 30.29 in1025.7 mb - 0.00 in0.0 mm 0.00 in0.0 mm
03:00 AM 50.1°F10.1°C 48.7°F9.3°C 95% Calm Calm -- 30.29 in1025.7 mb - 0.00 in0.0 mm 0.00 in0.0 mm
02:55 AM 50.0°F10.0°C 48.6°F9.2°C 95% Calm Calm -- 30.29 in1025.7 mb - 0.00 in0.0 mm 0.00 in0.0 mm
02:50 AM 50.0°F10.0°C 48.6°F9.2°C 95% Calm Calm -- 30.29 in1025.7 mb - 0.00 in0.0 mm 0.00 in0.0 mm
02:45 AM 49.9°F9.9°C 48.5°F9.2°C 95% Calm Calm -- 30.29 in1025.7 mb - 0.00 in0.0 mm 0.00 in0.0 mm
02:40 AM 50.0°F10.0°C 48.6°F9.2°C 95% Calm Calm -- 30.29 in1025.7 mb - 0.00 in0.0 mm 0.00 in0.0 mm
02:35 AM 50.1°F10.1°C 48.7°F9.3°C 95% Calm Calm -- 30.29 in1025.7 mb - 0.00 in0.0 mm 0.00 in0.0 mm
02:30 AM 50.3°F10.2°C 48.9°F9.4°C 95% Calm Calm -- 30.29 in1025.7 mb - 0.00 in0.0 mm 0.00 in0.0 mm
02:25 AM 50.5°F10.3°C 49.1°F9.5°C 95% Calm Calm -- 30.29 in1025.7 mb - 0.00 in0.0 mm 0.00 in0.0 mm
02:20 AM 50.6°F10.3°C 49.2°F9.6°C 95% Calm Calm -- 30.29 in1025.7 mb - 0.00 in0.0 mm 0.00 in0.0 mm
02:15 AM 50.7°F10.4°C 49.3°F9.6°C 95% Calm Calm -- 30.29 in1025.7 mb - 0.00 in0.0 mm 0.00 in0.0 mm
02:10 AM 50.8°F10.4°C 49.4°F9.7°C 95% Calm Calm -- 30.29 in1025.7 mb - 0.00 in0.0 mm 0.00 in0.0 mm
02:05 AM 50.8°F10.4°C 49.4°F9.7°C 95% Calm Calm -- 30.29 in1025.7 mb - 0.00 in0.0 mm 0.00 in0.0 mm
02:00 AM 50.9°F10.5°C 49.5°F9.7°C 95% Calm Calm -- 30.30 in1026.1 mb - 0.00 in0.0 mm 0.00 in0.0 mm
01:55 AM 50.9°F10.5°C 49.5°F9.7°C 95% Calm Calm -- 30.30 in1026.1 mb - 0.00 in0.0 mm 0.00 in0.0 mm
01:50 AM 50.9°F10.5°C 49.5°F9.7°C 95% Calm Calm -- 30.30 in1026.1 mb - 0.00 in0.0 mm 0.00 in0.0 mm
01:45 AM 50.8°F10.4°C 49.4°F9.7°C 95% Calm Calm -- 30.30 in1026.1 mb - 0.00 in0.0 mm 0.00 in0.0 mm
01:40 AM 50.9°F10.5°C 49.5°F9.7°C 95% Calm Calm -- 30.30 in1026.1 mb - 0.00 in0.0 mm 0.00 in0.0 mm
01:35 AM 50.9°F10.5°C 49.5°F9.7°C 95% Calm Calm -- 30.30 in1026.1 mb - 0.00 in0.0 mm 0.00 in0.0 mm
01:30 AM 50.9°F10.5°C 49.5°F9.7°C 95% Calm Calm -- 30.30 in1026.1 mb - 0.00 in0.0 mm 0.00 in0.0 mm
01:25 AM 51.0°F10.6°C 49.6°F9.8°C 95% Calm Calm -- 30.30 in1026.1 mb - 0.00 in0.0 mm 0.00 in0.0 mm
01:20 AM 51.0°F10.6°C 49.6°F9.8°C 95% Calm Calm -- 30.30 in1026.1 mb - 0.00 in0.0 mm 0.00 in0.0 mm
01:15 AM 51.0°F10.6°C 49.6°F9.8°C 95% Calm Calm -- 30.30 in1026.1 mb - 0.00 in0.0 mm 0.00 in0.0 mm
01:10 AM 51.1°F10.6°C 49.7°F9.8°C 95% Calm Calm -- 30.30 in1026.1 mb - 0.00 in0.0 mm 0.00 in0.0 mm
01:05 AM 51.1°F10.6°C 49.7°F9.8°C 95% Calm Calm -- 30.30 in1026.1 mb - 0.00 in0.0 mm 0.00 in0.0 mm
01:00 AM 51.2°F10.7°C 49.8°F9.9°C 95% Calm Calm -- 30.30 in1026.1 mb - 0.00 in0.0 mm 0.00 in0.0 mm
12:55 AM 51.2°F10.7°C 49.8°F9.9°C 95% Calm Calm -- 30.30 in1026.1 mb - 0.00 in0.0 mm 0.00 in0.0 mm
12:50 AM 51.2°F10.7°C 49.8°F9.9°C 95% Calm Calm -- 30.30 in1026.1 mb - 0.00 in0.0 mm 0.00 in0.0 mm
12:45 AM 51.1°F10.6°C 49.7°F9.8°C 95% Calm Calm -- 30.30 in1026.1 mb - 0.00 in0.0 mm 0.00 in0.0 mm
12:40 AM 51.0°F10.6°C 49.7°F9.8°C 95% Calm Calm -- 30.31 in1026.4 mb - 0.00 in0.0 mm 0.00 in0.0 mm
12:35 AM 51.1°F10.6°C 49.7°F9.8°C 95% Calm Calm -- 30.31 in1026.4 mb - 0.00 in0.0 mm 0.00 in0.0 mm
12:30 AM 51.1°F10.6°C 49.7°F9.8°C 95% Calm Calm -- 30.31 in1026.4 mb - 0.00 in0.0 mm 0.00 in0.0 mm
12:25 AM 51.1°F10.6°C 49.7°F9.8°C 95% Calm Calm -- 30.31 in1026.4 mb - 0.00 in0.0 mm 0.00 in0.0 mm
12:20 AM 51.2°F10.7°C 49.8°F9.9°C 95% Calm Calm -- 30.31 in1026.4 mb - 0.00 in0.0 mm 0.00 in0.0 mm
12:15 AM 51.1°F10.6°C 49.7°F9.8°C 95% Calm Calm -- 30.31 in1026.4 mb - 0.00 in0.0 mm 0.00 in0.0 mm
12:10 AM 51.0°F10.6°C 49.6°F9.8°C 95% Calm Calm -- 30.31 in1026.4 mb - 0.00 in0.0 mm 0.00 in0.0 mm
12:05 AM 51.0°F10.6°C 49.6°F9.8°C 95% Calm Calm -- 30.31 in1026.4 mb - 0.00 in0.0 mm 0.00 in0.0 mm
12:00 AM 50.9°F10.5°C 49.5°F9.7°C 95% Calm Calm -- 30.31 in1026.4 mb - 0.00 in0.0 mm 0.00 in0.0 mm